createdAt,value
2022-09-01T00:01:43.537Z,10.93
2022-09-01T00:04:08.788Z,11.87
2022-09-01T00:06:32.860Z,12.60
2022-09-01T00:08:56.804Z,11.53
2022-09-01T00:11:19.202Z,13.83
2022-09-01T00:13:41.577Z,12.57
2022-09-01T00:16:04.305Z,12.40
2022-09-01T00:18:26.632Z,16.20
2022-09-01T00:20:48.885Z,13.20
2022-09-01T00:23:11.219Z,12.47
2022-09-01T00:25:33.753Z,12.00
2022-09-01T00:28:00.313Z,12.40
2022-09-01T00:30:22.620Z,15.83
2022-09-01T00:32:46.703Z,13.53
2022-09-01T00:35:09.422Z,13.97
2022-09-01T00:37:31.821Z,15.73
2022-09-01T00:39:54.089Z,13.67
2022-09-01T00:42:16.444Z,13.77
2022-09-01T00:44:39.364Z,12.83
2022-09-01T00:47:01.704Z,13.60
2022-09-01T00:49:27.075Z,14.30
2022-09-01T00:51:51.499Z,13.13
2022-09-01T00:54:16.590Z,13.20
2022-09-01T00:56:40.312Z,12.40
2022-09-01T00:59:09.967Z,12.40
2022-09-01T01:01:33.181Z,12.60
2022-09-01T01:03:55.449Z,12.83
2022-09-01T01:06:20.001Z,11.67
2022-09-01T01:08:44.445Z,12.10
2022-09-01T01:11:09.955Z,10.63
2022-09-01T01:13:36.107Z,11.90
2022-09-01T01:15:59.906Z,13.20
2022-09-01T01:18:23.426Z,12.83
2022-09-01T01:21:05.404Z,15.00
2022-09-01T01:23:37.262Z,13.07
2022-09-01T01:26:00.689Z,13.30
2022-09-01T01:28:27.912Z,13.67
2022-09-01T01:30:53.347Z,13.97
2022-09-01T01:33:15.639Z,14.57
2022-09-01T01:35:40.100Z,13.83
2022-09-01T01:38:07.801Z,16.07
2022-09-01T01:40:31.226Z,14.27
2022-09-01T01:42:54.431Z,15.17
2022-09-01T01:45:17.905Z,14.70
2022-09-01T01:47:40.352Z,15.00
2022-09-01T01:50:04.256Z,15.80
2022-09-01T01:52:27.093Z,13.43
2022-09-01T01:54:49.507Z,14.33
2022-09-01T01:57:11.757Z,13.43
2022-09-01T01:59:34.453Z,12.60
2022-09-01T02:01:56.821Z,12.87
2022-09-01T02:04:20.050Z,12.33
2022-09-01T02:06:50.764Z,13.13
2022-09-01T02:09:14.366Z,12.90
2022-09-01T02:11:37.870Z,12.37
2022-09-01T02:14:01.251Z,12.27
2022-09-01T02:16:27.023Z,13.67
2022-09-01T02:18:49.887Z,13.37
2022-09-01T02:21:19.470Z,13.73
2022-09-01T02:23:41.805Z,13.40
2022-09-01T02:26:16.207Z,14.73
2022-09-01T02:28:42.493Z,12.90
2022-09-01T02:31:05.907Z,14.77
2022-09-01T02:33:28.510Z,13.73
2022-09-01T02:35:55.364Z,14.27
2022-09-01T02:38:18.280Z,13.63
2022-09-01T02:40:45.428Z,15.10
2022-09-01T02:43:08.424Z,13.57
2022-09-01T02:45:30.962Z,14.13
2022-09-01T02:47:53.978Z,14.80
2022-09-01T02:50:18.720Z,12.93
2022-09-01T02:52:41.861Z,12.83
2022-09-01T02:55:04.989Z,15.07
2022-09-01T02:57:27.936Z,13.33
2022-09-01T02:59:50.257Z,12.77
2022-09-01T03:02:12.733Z,14.27
2022-09-01T03:04:35.336Z,13.00
2022-09-01T03:06:58.855Z,14.40
2022-09-01T03:09:35.148Z,13.73
2022-09-01T03:11:57.492Z,13.90
2022-09-01T03:14:20.417Z,14.30
2022-09-01T03:16:42.759Z,13.50
2022-09-01T03:19:08.903Z,13.13
2022-09-01T03:21:32.181Z,13.47
2022-09-01T03:23:54.467Z,12.27
2022-09-01T03:26:18.829Z,13.70
2022-09-01T03:28:41.603Z,14.17
2022-09-01T03:31:05.432Z,13.83
2022-09-01T03:33:28.796Z,12.67
2022-09-01T03:35:52.549Z,13.47
2022-09-01T03:38:22.024Z,12.27
2022-09-01T03:40:45.592Z,12.93
2022-09-01T03:43:13.960Z,12.93
2022-09-01T03:45:38.496Z,13.43
2022-09-01T03:48:01.580Z,13.97
2022-09-01T03:50:25.043Z,13.60
2022-09-01T03:52:49.236Z,12.37
2022-09-01T03:55:12.648Z,13.83
2022-09-01T03:57:37.440Z,13.67
2022-09-01T04:00:00.667Z,12.20
2022-09-01T04:02:23.603Z,12.67
2022-09-01T04:04:47.713Z,12.00
2022-09-01T04:07:09.989Z,12.30
2022-09-01T04:09:38.122Z,11.50
2022-09-01T04:12:00.393Z,13.40
2022-09-01T04:14:25.503Z,12.40
2022-09-01T04:17:08.974Z,10.67
2022-09-01T04:19:36.514Z,10.80
2022-09-01T04:22:01.953Z,11.77
2022-09-01T04:24:33.531Z,12.97
2022-09-01T04:26:58.621Z,11.97
2022-09-01T04:29:28.656Z,11.90
2022-09-01T04:31:53.579Z,11.93
2022-09-01T04:34:16.246Z,12.10
2022-09-01T04:36:38.784Z,11.33
2022-09-01T04:39:08.679Z,11.83
2022-09-01T04:41:33.796Z,12.83
2022-09-01T04:44:01.784Z,12.67
2022-09-01T04:46:26.697Z,12.67
2022-09-01T04:48:52.675Z,12.67
2022-09-01T04:51:15.765Z,12.53
2022-09-01T04:53:51.774Z,13.37
2022-09-01T04:56:14.292Z,13.87
2022-09-01T04:58:39.981Z,14.10
2022-09-01T05:01:03.724Z,15.43
2022-09-01T05:03:26.038Z,16.00
2022-09-01T05:06:04.624Z,13.73
2022-09-01T05:08:28.977Z,13.87
2022-09-01T05:10:57.142Z,13.50
2022-09-01T05:13:42.396Z,12.80
2022-09-01T05:16:07.540Z,13.23
2022-09-01T05:18:31.270Z,12.90
2022-09-01T05:20:53.761Z,12.63
2022-09-01T05:23:19.404Z,12.87
2022-09-01T05:25:44.092Z,11.93
2022-09-01T05:28:06.661Z,13.23
2022-09-01T05:30:29.133Z,12.50
2022-09-01T05:32:55.123Z,12.27
2022-09-01T05:35:18.921Z,14.23
2022-09-01T05:37:42.717Z,12.97
2022-09-01T05:40:07.273Z,12.30
2022-09-01T05:42:30.881Z,13.17
2022-09-01T05:44:53.245Z,12.37
2022-09-01T05:47:20.962Z,11.77
2022-09-01T05:49:45.512Z,12.47
2022-09-01T05:52:09.292Z,11.47
2022-09-01T05:54:33.840Z,11.43
2022-09-01T05:57:12.721Z,11.07
2022-09-01T05:59:42.064Z,9.67
2022-09-01T06:02:09.394Z,9.90
2022-09-01T06:04:31.901Z,10.03
2022-09-01T06:07:08.478Z,9.97
2022-09-01T06:09:44.053Z,9.43
2022-09-01T06:12:07.005Z,8.67
2022-09-01T06:14:29.761Z,8.10
2022-09-01T06:16:54.179Z,8.00
2022-09-01T06:19:16.478Z,7.60
2022-09-01T06:21:42.452Z,7.33
2022-09-01T06:24:07.022Z,6.30
2022-09-01T06:26:31.351Z,6.80
2022-09-01T06:28:56.959Z,5.95
2022-09-01T06:31:23.783Z,6.78
2022-09-01T06:33:47.585Z,5.55
2022-09-01T06:36:09.886Z,5.15
2022-09-01T06:38:32.896Z,6.80
2022-09-01T06:41:01.018Z,4.45
2022-09-01T06:43:23.749Z,4.82
2022-09-01T06:45:54.791Z,5.28
2022-09-01T06:48:23.548Z,3.75
2022-09-01T06:53:32.529Z,3.58
2022-09-01T06:55:56.320Z,3.83
2022-09-01T06:58:21.438Z,3.50
2022-09-01T07:00:46.945Z,4.28
2022-09-01T07:03:10.976Z,4.15
2022-09-01T07:06:08.947Z,5.22
2022-09-01T07:14:19.206Z,2.80
2022-09-01T07:16:52.111Z,2.70
2022-09-01T07:19:16.507Z,4.43
2022-09-01T07:24:33.293Z,2.95
2022-09-01T07:27:35.567Z,2.88
2022-09-01T07:29:58.415Z,2.72
2022-09-01T07:35:06.073Z,4.30
2022-09-01T07:43:37.578Z,4.28
2022-09-01T07:51:51.396Z,2.47
2022-09-01T07:54:15.125Z,2.70
2022-09-01T07:56:40.152Z,2.72
2022-09-01T07:59:10.607Z,4.05
2022-09-01T08:02:05.748Z,2.92
2022-09-01T08:04:28.248Z,2.50
2022-09-01T08:06:50.733Z,2.50
2022-09-01T08:09:32.819Z,2.80
2022-09-01T08:12:02.187Z,2.58
2022-09-01T08:14:27.469Z,3.15
2022-09-01T08:16:52.914Z,3.00
2022-09-01T08:19:16.937Z,4.72
2022-09-01T08:22:03.288Z,1.95
2022-09-01T08:24:41.855Z,2.75
2022-09-01T08:27:04.724Z,3.17
2022-09-01T08:29:27.189Z,2.42
2022-09-01T08:31:50.117Z,4.43
2022-09-01T08:34:12.630Z,2.97
2022-09-01T08:36:36.330Z,2.63
2022-09-01T08:38:59.940Z,3.53
2022-09-01T08:41:35.190Z,5.15
2022-09-01T08:44:12.326Z,3.28
2022-09-01T08:46:38.432Z,2.92
2022-09-01T08:49:24.149Z,3.20
2022-09-01T08:52:26.732Z,3.17
2022-09-01T08:55:25.885Z,4.43
2022-09-01T08:57:54.848Z,4.82
2022-09-01T09:00:28.503Z,6.85
2022-09-01T09:03:01.075Z,4.07
2022-09-01T09:05:42.397Z,3.05
2022-09-01T09:08:13.577Z,4.03
2022-09-01T09:10:43.669Z,4.68
2022-09-01T09:13:13.463Z,4.40
2022-09-01T09:15:40.248Z,5.13
2022-09-01T09:18:29.609Z,7.03
2022-09-01T09:20:52.915Z,4.28
2022-09-01T09:23:21.847Z,2.90
2022-09-01T09:25:44.282Z,4.00
2022-09-01T09:28:06.691Z,3.47
2022-09-01T09:30:32.386Z,7.35
2022-09-01T09:35:47.491Z,3.20
2022-09-01T09:38:18.991Z,5.18
2022-09-01T09:41:15.906Z,4.47
2022-09-01T09:43:42.237Z,3.10
2022-09-01T09:46:25.883Z,6.90
2022-09-01T09:48:48.625Z,3.42
2022-09-01T09:51:18.832Z,3.30
2022-09-01T09:53:41.046Z,3.70
2022-09-01T09:56:15.127Z,3.20
2022-09-01T09:58:42.897Z,4.63
2022-09-01T10:01:15.252Z,3.55
2022-09-01T10:03:42.623Z,3.50
2022-09-01T10:06:07.842Z,3.28
2022-09-01T10:08:35.106Z,4.18
2022-09-01T10:10:58.791Z,3.92
2022-09-01T10:13:24.148Z,5.07
2022-09-01T10:15:53.967Z,4.85
2022-09-01T10:18:20.896Z,3.92
2022-09-01T10:20:48.606Z,3.60
2022-09-01T10:23:15.326Z,3.65
2022-09-01T10:25:39.516Z,3.83
2022-09-01T10:28:24.331Z,3.67
2022-09-01T10:30:48.207Z,6.05
2022-09-01T10:33:19.465Z,5.60
2022-09-01T10:35:47.992Z,4.65
2022-09-01T10:38:15.910Z,3.58
2022-09-01T10:40:49.156Z,3.72
2022-09-01T10:43:36.127Z,7.20
2022-09-01T10:46:06.012Z,4.43
2022-09-01T10:48:45.960Z,3.80
2022-09-01T10:51:18.367Z,3.65
2022-09-01T10:53:42.310Z,3.70
2022-09-01T10:56:28.526Z,3.92
2022-09-01T11:01:51.146Z,3.83
2022-09-01T11:04:27.098Z,4.03
2022-09-01T11:09:42.190Z,3.90
2022-09-01T11:12:29.835Z,3.42
2022-09-01T11:14:53.917Z,3.10
2022-09-01T11:17:22.462Z,3.45
2022-09-01T11:19:55.671Z,3.22
2022-09-01T11:22:26.626Z,5.35
2022-09-01T11:25:12.134Z,2.83
2022-09-01T11:27:50.089Z,2.78
2022-09-01T11:30:16.786Z,2.67
2022-09-01T11:32:42.654Z,3.53
2022-09-01T11:35:16.628Z,2.90
2022-09-01T11:37:40.861Z,2.75
2022-09-01T11:40:08.408Z,3.83
2022-09-01T11:42:41.213Z,3.03
2022-09-01T11:45:20.735Z,2.78
2022-09-01T11:47:50.414Z,3.08
2022-09-01T11:50:18.791Z,3.40
2022-09-01T11:52:41.476Z,2.67
2022-09-01T11:55:13.140Z,2.28
2022-09-01T11:57:37.333Z,3.05
2022-09-01T12:00:00.694Z,2.65
2022-09-01T12:02:36.528Z,3.42
2022-09-01T12:04:59.105Z,3.40
2022-09-01T12:07:30.232Z,3.10
2022-09-01T12:09:52.763Z,4.32
2022-09-01T12:12:33.967Z,2.97
2022-09-01T12:15:05.665Z,2.53
2022-09-01T12:17:28.798Z,2.67
2022-09-01T12:19:51.463Z,2.60
2022-09-01T12:22:15.304Z,2.42
2022-09-01T12:24:37.720Z,2.78
2022-09-01T12:27:01.210Z,2.35
2022-09-01T12:29:23.821Z,2.47
2022-09-01T12:31:48.248Z,2.10
2022-09-01T12:34:29.396Z,3.10
2022-09-01T12:37:11.982Z,2.35
2022-09-01T12:39:39.144Z,3.30
2022-09-01T12:42:09.464Z,2.58
2022-09-01T12:44:43.584Z,2.63
2022-09-01T12:47:10.440Z,2.55
2022-09-01T12:49:35.761Z,2.83
2022-09-01T12:52:19.865Z,2.70
2022-09-01T12:54:42.671Z,4.05
2022-09-01T12:57:04.993Z,2.67
2022-09-01T12:59:36.279Z,2.38
2022-09-01T13:02:19.983Z,2.45
2022-09-01T13:04:42.276Z,2.45
2022-09-01T13:07:06.440Z,2.80
2022-09-01T13:09:28.855Z,2.38
2022-09-01T13:12:07.508Z,2.67
2022-09-01T13:14:31.127Z,2.75
2022-09-01T13:16:53.394Z,2.53
2022-09-01T13:19:24.014Z,3.20
2022-09-01T13:21:49.563Z,2.55
2022-09-01T13:24:11.857Z,2.45
2022-09-01T13:26:34.324Z,2.83
2022-09-01T13:28:56.557Z,2.95
2022-09-01T13:31:35.663Z,3.70
2022-09-01T13:34:22.910Z,2.97
2022-09-01T13:36:43.623Z,2.38
2022-09-01T13:39:08.228Z,2.97
2022-09-01T13:41:31.751Z,3.15
2022-09-01T13:43:53.998Z,2.67
2022-09-01T13:46:16.298Z,2.30
2022-09-01T13:51:27.590Z,2.55
2022-09-01T13:53:52.252Z,3.63
2022-09-01T13:56:14.540Z,2.42
2022-09-01T13:58:37.032Z,2.10
2022-09-01T14:00:59.875Z,2.45
2022-09-01T14:03:23.627Z,2.33
2022-09-01T14:05:47.813Z,4.07
2022-09-01T14:08:12.980Z,2.20
2022-09-01T14:10:38.564Z,2.80
2022-09-01T14:13:00.915Z,1.98
2022-09-01T14:15:27.139Z,2.45
2022-09-01T14:17:53.802Z,2.47
2022-09-01T14:20:18.604Z,2.22
2022-09-01T14:22:40.992Z,3.70
2022-09-01T14:25:03.281Z,1.88
2022-09-01T14:27:25.519Z,2.63
2022-09-01T14:29:56.941Z,4.05
2022-09-01T14:32:26.983Z,1.65
2022-09-01T14:34:49.975Z,2.72
2022-09-01T14:37:12.403Z,1.92
2022-09-01T14:39:34.653Z,2.47
2022-09-01T14:41:56.926Z,2.92
2022-09-01T14:44:19.377Z,2.38
2022-09-01T14:46:41.712Z,3.05
2022-09-01T14:49:04.632Z,9.77
2022-09-01T14:52:10.364Z,2.53
2022-09-01T14:54:11.277Z,2.78
2022-09-01T14:56:33.646Z,2.42
2022-09-01T14:59:00.532Z,2.42
2022-09-01T15:01:34.206Z,2.35
2022-09-01T15:03:57.249Z,3.17
2022-09-01T15:06:20.383Z,2.22
2022-09-01T15:08:43.273Z,2.50
2022-09-01T15:11:09.469Z,2.20
2022-09-01T15:13:32.008Z,1.88
2022-09-01T15:15:54.814Z,3.20
2022-09-01T15:18:17.228Z,2.22
2022-09-01T15:20:46.345Z,2.80
2022-09-01T15:23:08.724Z,4.78
2022-09-01T15:25:31.201Z,2.00
2022-09-01T15:27:53.871Z,2.45
2022-09-01T15:30:16.884Z,3.78
2022-09-01T15:32:39.159Z,2.95
2022-09-01T15:35:01.458Z,2.17
2022-09-01T15:37:23.779Z,2.40
2022-09-01T15:39:46.041Z,3.35
2022-09-01T15:42:08.342Z,2.75
2022-09-01T15:44:31.065Z,2.20
2022-09-01T15:46:53.497Z,2.00
2022-09-01T15:49:17.683Z,2.00
2022-09-01T15:51:41.083Z,2.22
2022-09-01T15:54:05.448Z,2.72
2022-09-01T15:56:31.564Z,5.43
2022-09-01T15:59:02.080Z,2.10
2022-09-01T16:01:24.709Z,2.75
2022-09-01T16:03:47.078Z,1.95
2022-09-01T16:06:09.643Z,2.20
2022-09-01T16:08:31.915Z,2.30
2022-09-01T16:10:54.585Z,2.65
2022-09-01T16:13:17.563Z,2.25
2022-09-01T16:15:47.392Z,2.58
2022-09-01T16:18:09.832Z,1.95
2022-09-01T16:20:38.356Z,2.65
2022-09-01T16:23:09.853Z,1.95
2022-09-01T16:25:33.206Z,3.00
2022-09-01T16:27:57.544Z,3.03
2022-09-01T16:30:24.170Z,2.22
2022-09-01T16:32:48.193Z,2.35
2022-09-01T16:35:10.559Z,5.05
2022-09-01T16:37:42.508Z,1.95
2022-09-01T16:40:09.858Z,2.22
2022-09-01T16:42:47.148Z,2.10
2022-09-01T16:45:09.487Z,2.47
2022-09-01T16:47:37.945Z,2.30
2022-09-01T16:50:03.883Z,2.95
2022-09-01T16:52:29.445Z,2.63
2022-09-01T16:54:57.898Z,3.72
2022-09-01T16:57:20.119Z,2.33
2022-09-01T16:59:52.024Z,2.33
2022-09-01T17:02:17.295Z,3.60
2022-09-01T17:04:42.744Z,2.00
2022-09-01T17:07:14.309Z,2.60
2022-09-01T17:09:44.420Z,2.03
2022-09-01T17:12:27.749Z,2.25
2022-09-01T17:14:55.104Z,2.30
2022-09-01T17:17:20.351Z,2.83
2022-09-01T17:19:43.120Z,3.05
2022-09-01T17:22:07.794Z,2.20
2022-09-01T17:24:43.374Z,2.22
2022-09-01T17:27:07.881Z,3.13
2022-09-01T17:29:32.369Z,3.55
2022-09-01T17:32:00.641Z,3.33
2022-09-01T17:34:23.896Z,3.83
2022-09-01T17:36:51.331Z,3.38
2022-09-01T17:39:22.747Z,2.30
2022-09-01T17:41:48.393Z,2.08
2022-09-01T17:44:22.861Z,2.47
2022-09-01T17:46:53.985Z,2.50
2022-09-01T17:49:35.249Z,2.08
2022-09-01T17:52:03.435Z,2.30
2022-09-01T17:54:44.671Z,2.40
2022-09-01T17:57:32.949Z,3.58
2022-09-01T18:00:07.433Z,4.10
2022-09-01T18:02:58.432Z,3.55
2022-09-01T18:05:24.527Z,2.70
2022-09-01T18:07:47.240Z,2.10
2022-09-01T18:10:12.775Z,4.50
2022-09-01T18:12:38.169Z,2.75
2022-09-01T18:15:08.955Z,2.95
2022-09-01T18:17:36.096Z,3.85
2022-09-01T18:20:05.381Z,4.50
2022-09-01T18:22:28.872Z,2.42
2022-09-01T18:24:55.778Z,2.50
2022-09-01T18:27:18.738Z,3.03
2022-09-01T18:29:46.520Z,2.60
2022-09-01T18:32:18.432Z,2.50
2022-09-01T18:34:59.604Z,4.60
2022-09-01T18:37:42.304Z,3.05
2022-09-01T18:40:07.787Z,2.33
2022-09-01T18:42:37.204Z,2.63
2022-09-01T18:45:14.792Z,4.03
2022-09-01T18:47:38.388Z,2.70
2022-09-01T18:50:11.818Z,2.67
2022-09-01T18:52:34.064Z,2.92
2022-09-01T18:55:04.144Z,2.95
2022-09-01T18:57:33.183Z,3.17
2022-09-01T19:00:07.939Z,4.90
2022-09-01T19:02:58.253Z,2.50
2022-09-01T19:05:30.067Z,5.55
2022-09-01T19:08:13.877Z,6.13
2022-09-01T19:10:42.725Z,2.80
2022-09-01T19:13:27.956Z,2.90
2022-09-01T19:16:19.833Z,3.00
2022-09-01T19:18:55.998Z,3.40
2022-09-01T19:21:23.058Z,3.03
2022-09-01T19:23:49.747Z,3.88
2022-09-01T19:26:16.561Z,3.70
2022-09-01T19:28:44.421Z,4.43
2022-09-01T19:31:25.897Z,3.22
2022-09-01T19:33:51.004Z,3.80
2022-09-01T19:36:18.280Z,3.72
2022-09-01T19:38:40.570Z,3.42
2022-09-01T19:41:12.898Z,4.32
2022-09-01T19:43:37.116Z,4.78
2022-09-01T19:46:12.735Z,3.95
2022-09-01T19:48:45.822Z,3.92
2022-09-01T19:51:13.656Z,3.58
2022-09-01T19:53:41.975Z,4.25
2022-09-01T19:56:17.085Z,3.90
2022-09-01T19:58:49.476Z,4.28
2022-09-01T20:01:13.981Z,3.90
2022-09-01T20:03:38.428Z,3.10
2022-09-01T20:06:02.513Z,4.25
2022-09-01T20:08:33.808Z,3.50
2022-09-01T20:11:05.281Z,3.92
2022-09-01T20:13:46.224Z,4.22
2022-09-01T20:16:12.344Z,4.35
2022-09-01T20:18:39.767Z,3.85
2022-09-01T20:21:04.557Z,5.13
2022-09-01T20:23:33.415Z,4.25
2022-09-01T20:26:23.287Z,4.80
2022-09-01T20:28:53.617Z,5.18
2022-09-01T20:31:19.723Z,4.10
2022-09-01T20:33:45.685Z,4.45
2022-09-01T20:36:12.386Z,5.10
2022-09-01T20:39:16.842Z,4.32
2022-09-01T20:42:02.405Z,4.65
2022-09-01T20:44:38.144Z,4.28
2022-09-01T20:47:00.505Z,4.40
2022-09-01T20:49:23.113Z,5.93
2022-09-01T20:51:49.427Z,4.78
2022-09-01T20:54:24.100Z,4.95
2022-09-01T20:57:02.603Z,5.40
2022-09-01T20:59:43.618Z,4.68
2022-09-01T21:02:21.535Z,4.72
2022-09-01T21:04:50.008Z,4.78
2022-09-01T21:07:30.666Z,5.43
2022-09-01T21:09:56.457Z,5.60
2022-09-01T21:12:35.824Z,5.55
2022-09-01T21:15:04.011Z,5.00
2022-09-01T21:17:49.536Z,5.10
2022-09-01T21:20:15.961Z,4.73
2022-09-01T21:22:38.217Z,5.07
2022-09-01T21:25:00.972Z,4.72
2022-09-01T21:27:26.364Z,5.43
2022-09-01T21:30:03.879Z,6.22
2022-09-01T21:32:27.366Z,5.73
2022-09-01T21:34:50.467Z,5.25
2022-09-01T21:37:13.186Z,5.30
2022-09-01T21:39:36.008Z,5.37
2022-09-01T21:41:58.284Z,6.00
2022-09-01T21:44:22.113Z,6.13
2022-09-01T21:46:44.465Z,5.63
2022-09-01T21:49:06.737Z,6.03
2022-09-01T21:51:28.998Z,6.17
2022-09-01T21:53:51.228Z,7.10
2022-09-01T21:56:13.567Z,6.00
2022-09-01T21:58:39.706Z,5.83
2022-09-01T22:01:02.393Z,7.13
2022-09-01T22:03:24.729Z,6.30
2022-09-01T22:05:46.993Z,5.93
2022-09-01T22:08:12.101Z,5.67
2022-09-01T22:10:34.688Z,6.57
2022-09-01T22:12:57.481Z,7.00
2022-09-01T22:15:21.281Z,6.87
2022-09-01T22:17:44.828Z,6.37
2022-09-01T22:20:08.731Z,7.10
2022-09-01T22:22:32.517Z,6.60
2022-09-01T22:24:54.811Z,7.23
2022-09-01T22:27:17.142Z,6.67
2022-09-01T22:29:39.530Z,6.23
2022-09-01T22:32:01.791Z,6.73
2022-09-01T22:34:24.071Z,7.57
2022-09-01T22:36:48.120Z,7.57
2022-09-01T22:39:11.703Z,8.53
2022-09-01T22:41:34.510Z,7.83
2022-09-01T22:43:58.737Z,6.70
2022-09-01T22:46:22.368Z,6.80
2022-09-01T22:48:45.426Z,7.93
2022-09-01T22:51:08.901Z,7.70
2022-09-01T22:53:31.208Z,9.27
2022-09-01T22:55:53.789Z,7.67
2022-09-01T22:58:20.058Z,7.80
2022-09-01T23:00:47.784Z,7.67
2022-09-01T23:03:10.072Z,7.10
2022-09-01T23:05:32.326Z,7.10
2022-09-01T23:07:54.688Z,7.00
2022-09-01T23:10:16.933Z,6.90
2022-09-01T23:12:39.164Z,6.83
2022-09-01T23:15:01.418Z,7.80
2022-09-01T23:17:23.657Z,7.33
2022-09-01T23:19:45.925Z,8.17
2022-09-01T23:22:08.541Z,7.30
2022-09-01T23:24:30.856Z,7.70
2022-09-01T23:26:53.321Z,8.20
2022-09-01T23:29:15.621Z,8.63
2022-09-01T23:31:39.104Z,8.40
2022-09-01T23:34:01.491Z,7.70
2022-09-01T23:36:24.688Z,8.53
2022-09-01T23:38:48.641Z,9.07
2022-09-01T23:41:12.493Z,8.83
2022-09-01T23:43:34.833Z,8.43
2022-09-01T23:45:57.666Z,9.23
2022-09-01T23:48:20.069Z,9.00
2022-09-01T23:50:53.556Z,8.67
2022-09-01T23:53:15.837Z,8.60
2022-09-01T23:55:44.474Z,8.83
2022-09-01T23:58:06.736Z,8.43
